createdAt,value
2023-04-19T00:00:40.360Z,59
2023-04-19T00:01:47.019Z,59
2023-04-19T00:02:54.283Z,59
2023-04-19T00:04:01.381Z,59
2023-04-19T00:05:08.386Z,60
2023-04-19T00:06:15.461Z,60
2023-04-19T00:07:22.028Z,60
2023-04-19T00:08:29.122Z,60
2023-04-19T00:09:36.252Z,60
2023-04-19T00:10:43.284Z,60
2023-04-19T00:11:50.503Z,60
2023-04-19T00:12:57.005Z,60
2023-04-19T00:14:04.076Z,60
2023-04-19T00:15:11.249Z,60
2023-04-19T00:16:18.357Z,60
2023-04-19T00:17:25.470Z,60
2023-04-19T00:18:32.505Z,60
2023-04-19T00:19:39.170Z,60
2023-04-19T00:20:46.244Z,60
2023-04-19T00:21:53.320Z,60
2023-04-19T00:23:00.460Z,60
2023-04-19T00:24:07.086Z,60
2023-04-19T00:25:14.097Z,60
2023-04-19T00:26:21.206Z,60
2023-04-19T00:27:28.426Z,60
2023-04-19T00:28:35.544Z,60
2023-04-19T00:29:42.009Z,60
2023-04-19T00:30:49.222Z,60
2023-04-19T00:31:56.251Z,60
2023-04-19T00:33:03.498Z,60
2023-04-19T00:34:10.434Z,60
2023-04-19T00:35:17.115Z,60
2023-04-19T00:36:24.191Z,60
2023-04-19T00:37:31.191Z,60
2023-04-19T00:38:38.323Z,60
2023-04-19T00:39:45.448Z,60
2023-04-19T00:40:52.039Z,60
2023-04-19T00:41:59.224Z,60
2023-04-19T00:43:06.366Z,60
2023-04-19T00:44:13.881Z,60
2023-04-19T00:45:20.459Z,60
2023-04-19T00:46:27.226Z,60
2023-04-19T00:47:34.128Z,60
2023-04-19T00:48:41.206Z,60
2023-04-19T00:49:48.431Z,60
2023-04-19T00:50:55.531Z,60
2023-04-19T00:52:03.267Z,60
2023-04-19T00:53:09.227Z,60
2023-04-19T00:54:16.592Z,60
2023-04-19T00:55:23.320Z,60
2023-04-19T00:56:30.520Z,60
2023-04-19T00:57:37.049Z,60
2023-04-19T00:58:44.236Z,60
2023-04-19T00:59:51.270Z,60
2023-04-19T01:00:58.321Z,60
2023-04-19T01:02:05.536Z,60
2023-04-19T01:04:19.552Z,60
2023-04-19T01:05:26.320Z,60
2023-04-19T01:06:33.474Z,60
2023-04-19T01:07:39.978Z,60
2023-04-19T01:08:47.134Z,60
2023-04-19T01:09:54.203Z,60
2023-04-19T01:11:01.231Z,60
2023-04-19T01:12:08.574Z,60
2023-04-19T01:13:14.975Z,60
2023-04-19T01:14:22.135Z,60
2023-04-19T01:15:29.225Z,60
2023-04-19T01:16:36.363Z,60
2023-04-19T01:17:43.430Z,60
2023-04-19T01:18:50.092Z,60
2023-04-19T01:19:57.076Z,60
2023-04-19T01:21:04.142Z,60
2023-04-19T01:22:11.252Z,60
2023-04-19T01:23:18.497Z,61
2023-04-19T01:24:25.032Z,61
2023-04-19T01:25:32.084Z,61
2023-04-19T01:26:39.230Z,61
2023-04-19T01:27:46.337Z,61
2023-04-19T01:28:53.448Z,61
2023-04-19T01:29:59.996Z,61
2023-04-19T01:31:07.286Z,60
2023-04-19T01:32:14.155Z,60
2023-04-19T01:33:21.347Z,60
2023-04-19T01:34:28.625Z,61
2023-04-19T01:35:35.053Z,61
2023-04-19T01:36:42.057Z,61
2023-04-19T01:37:49.243Z,61
2023-04-19T01:38:56.301Z,61
2023-04-19T01:40:03.455Z,61
2023-04-19T01:41:10.093Z,61
2023-04-19T01:42:17.130Z,61
2023-04-19T01:43:24.275Z,61
2023-04-19T01:45:38.454Z,61
2023-04-19T01:46:45.118Z,61
2023-04-19T01:47:52.227Z,61
2023-04-19T01:48:59.363Z,61
2023-04-19T01:50:06.384Z,62
2023-04-19T01:51:13.392Z,62
2023-04-19T01:52:20.089Z,62
2023-04-19T01:53:27.174Z,62
2023-04-19T01:54:34.234Z,62
2023-04-19T01:55:41.306Z,62
2023-04-19T01:56:48.471Z,62
2023-04-19T01:57:55.042Z,62
2023-04-19T01:59:02.179Z,62
2023-04-19T02:00:09.440Z,62
2023-04-19T02:01:16.445Z,62
2023-04-19T02:02:23.678Z,62
2023-04-19T02:03:30.329Z,62
2023-04-19T02:04:37.192Z,62
2023-04-19T02:05:44.258Z,62
2023-04-19T02:07:58.480Z,62
2023-04-19T02:09:05.130Z,62
2023-04-19T02:10:12.115Z,62
2023-04-19T02:11:19.283Z,62
2023-04-19T02:12:26.373Z,62
2023-04-19T02:13:33.482Z,63
2023-04-19T02:14:40.075Z,63
2023-04-19T02:15:47.139Z,63
2023-04-19T02:16:54.290Z,63
2023-04-19T02:18:01.490Z,63
2023-04-19T02:19:08.508Z,63
2023-04-19T02:20:15.078Z,63
2023-04-19T02:21:22.168Z,63
2023-04-19T02:22:29.305Z,63
2023-04-19T02:23:36.412Z,63
2023-04-19T02:24:43.528Z,63
2023-04-19T02:25:50.596Z,63
2023-04-19T02:26:57.162Z,63
2023-04-19T02:28:04.267Z,63
2023-04-19T02:29:11.409Z,63
2023-04-19T02:30:18.513Z,63
2023-04-19T02:31:25.105Z,63
2023-04-19T02:32:32.199Z,64
2023-04-19T02:33:39.339Z,64
2023-04-19T02:34:46.393Z,64
2023-04-19T02:35:52.994Z,64
2023-04-19T02:37:00.136Z,64
2023-04-19T02:38:07.180Z,64
2023-04-19T02:39:14.369Z,64
2023-04-19T02:40:21.418Z,64
2023-04-19T02:41:27.977Z,64
2023-04-19T02:42:35.208Z,64
2023-04-19T02:43:42.191Z,64
2023-04-19T02:44:49.300Z,64
2023-04-19T02:45:56.455Z,64
2023-04-19T02:47:02.953Z,64
2023-04-19T02:48:10.253Z,64
2023-04-19T02:49:17.273Z,64
2023-04-19T02:50:24.415Z,64
2023-04-19T02:51:31.440Z,64
2023-04-19T02:52:38.083Z,65
2023-04-19T02:53:45.095Z,65
2023-04-19T02:54:52.252Z,64
2023-04-19T02:55:59.367Z,64
2023-04-19T02:57:06.425Z,65
2023-04-19T02:58:12.993Z,64
2023-04-19T02:59:20.112Z,65
2023-04-19T03:00:27.287Z,65
2023-04-19T03:01:34.371Z,65
2023-04-19T03:02:41.511Z,65
2023-04-19T03:03:48.199Z,65
2023-04-19T03:04:55.193Z,65
2023-04-19T03:06:02.254Z,65
2023-04-19T03:07:09.397Z,65
2023-04-19T03:08:16.503Z,65
2023-04-19T03:09:23.042Z,65
2023-04-19T03:11:37.221Z,65
2023-04-19T03:13:51.524Z,65
2023-04-19T03:14:58.035Z,65
2023-04-19T03:16:05.225Z,65
2023-04-19T03:17:12.242Z,65
2023-04-19T03:18:19.389Z,66
2023-04-19T03:19:26.442Z,66
2023-04-19T03:20:33.054Z,66
2023-04-19T03:21:40.145Z,66
2023-04-19T03:22:47.293Z,66
2023-04-19T03:23:54.323Z,66
2023-04-19T03:25:01.441Z,66
2023-04-19T03:26:08.187Z,66
2023-04-19T03:27:15.176Z,66
2023-04-19T03:28:22.213Z,66
2023-04-19T03:29:29.465Z,67
2023-04-19T03:30:36.520Z,67
2023-04-19T03:31:43.179Z,67
2023-04-19T03:32:50.164Z,67
2023-04-19T03:33:57.296Z,67
2023-04-19T03:35:04.314Z,67
2023-04-19T03:36:10.949Z,67
2023-04-19T03:37:18.094Z,67
2023-04-19T03:38:25.187Z,67
2023-04-19T03:39:32.316Z,67
2023-04-19T03:40:39.454Z,67
2023-04-19T03:41:46.090Z,67
2023-04-19T03:42:53.009Z,67
2023-04-19T03:44:00.216Z,67
2023-04-19T03:45:07.391Z,67
2023-04-19T03:46:14.545Z,67
2023-04-19T03:47:21.108Z,67
2023-04-19T03:48:28.131Z,67
2023-04-19T03:49:35.330Z,67
2023-04-19T03:50:42.307Z,67
2023-04-19T03:51:49.441Z,67
2023-04-19T03:52:56.004Z,67
2023-04-19T03:54:03.132Z,67
2023-04-19T03:55:10.242Z,67
2023-04-19T03:56:17.333Z,67
2023-04-19T03:57:24.395Z,67
2023-04-19T03:58:30.922Z,67
2023-04-19T03:59:38.087Z,67
2023-04-19T04:00:45.194Z,67
2023-04-19T04:01:52.354Z,67
2023-04-19T04:02:59.542Z,67
2023-04-19T04:04:06.228Z,67
2023-04-19T04:05:13.171Z,67
2023-04-19T04:06:20.242Z,67
2023-04-19T04:07:27.363Z,67
2023-04-19T04:08:34.391Z,67
2023-04-19T04:09:41.014Z,67
2023-04-19T04:10:48.079Z,67
2023-04-19T04:11:55.216Z,67
2023-04-19T04:13:02.280Z,67
2023-04-19T04:15:16.089Z,67
2023-04-19T04:16:23.208Z,67
2023-04-19T04:17:30.261Z,67
2023-04-19T04:18:37.310Z,67
2023-04-19T04:19:44.424Z,67
2023-04-19T04:20:50.956Z,67
2023-04-19T04:21:58.086Z,67
2023-04-19T04:23:05.306Z,67
2023-04-19T04:24:12.467Z,67
2023-04-19T04:25:21.187Z,67
2023-04-19T04:26:26.050Z,67
2023-04-19T04:27:33.155Z,67
2023-04-19T04:28:40.285Z,67
2023-04-19T04:29:47.366Z,67
2023-04-19T04:30:54.389Z,67
2023-04-19T04:32:03.388Z,67
2023-04-19T04:33:08.646Z,67
2023-04-19T04:34:15.675Z,67
2023-04-19T04:35:22.316Z,67
2023-04-19T04:36:29.505Z,67
2023-04-19T04:37:36.090Z,67
2023-04-19T04:38:43.140Z,67
2023-04-19T04:39:50.345Z,67
2023-04-19T04:42:04.485Z,67
2023-04-19T04:43:11.058Z,67
2023-04-19T04:44:18.238Z,67
2023-04-19T04:45:25.282Z,67
2023-04-19T04:46:32.346Z,67
2023-04-19T04:47:39.559Z,67
2023-04-19T04:48:46.112Z,67
2023-04-19T04:49:53.167Z,67
2023-04-19T04:51:00.252Z,67
2023-04-19T04:52:07.427Z,67
2023-04-19T04:53:14.515Z,67
2023-04-19T04:54:21.071Z,67
2023-04-19T04:55:28.177Z,67
2023-04-19T04:56:35.388Z,67
2023-04-19T04:57:42.405Z,67
2023-04-19T04:58:49.659Z,67
2023-04-19T04:59:56.175Z,67
2023-04-19T05:01:03.150Z,67
2023-04-19T05:02:10.580Z,67
2023-04-19T05:03:17.490Z,67
2023-04-19T05:04:24.541Z,67
2023-04-19T05:05:31.073Z,67
2023-04-19T05:06:38.229Z,67
2023-04-19T05:07:45.281Z,67
2023-04-19T05:08:52.447Z,67
2023-04-19T05:09:58.980Z,67
2023-04-19T05:11:06.225Z,67
2023-04-19T05:12:13.156Z,67
2023-04-19T05:13:20.293Z,67
2023-04-19T05:14:27.454Z,67
2023-04-19T05:15:33.974Z,67
2023-04-19T05:16:41.258Z,67
2023-04-19T05:18:55.417Z,67
2023-04-19T05:20:02.427Z,67
2023-04-19T05:21:09.008Z,67
2023-04-19T05:22:16.174Z,67
2023-04-19T05:23:23.247Z,67
2023-04-19T05:24:30.313Z,67
2023-04-19T05:25:37.376Z,67
2023-04-19T05:26:44.041Z,67
2023-04-19T05:27:51.106Z,67
2023-04-19T05:28:58.250Z,67
2023-04-19T05:30:05.315Z,67
2023-04-19T05:31:12.578Z,67
2023-04-19T05:32:19.082Z,67
2023-04-19T05:33:26.147Z,67
2023-04-19T05:34:33.248Z,67
2023-04-19T05:35:40.328Z,67
2023-04-19T05:36:47.442Z,67
2023-04-19T05:37:54.119Z,67
2023-04-19T05:39:01.077Z,67
2023-04-19T05:40:08.257Z,67
2023-04-19T05:41:15.369Z,67
2023-04-19T05:42:22.470Z,67
2023-04-19T05:43:29.089Z,67
2023-04-19T05:44:36.251Z,67
2023-04-19T05:45:43.273Z,67
2023-04-19T05:46:50.356Z,67
2023-04-19T05:47:57.565Z,67
2023-04-19T05:49:04.067Z,67
2023-04-19T05:50:11.099Z,67
2023-04-19T05:51:18.234Z,67
2023-04-19T05:52:25.352Z,67
2023-04-19T05:53:32.419Z,67
2023-04-19T05:54:39.091Z,67
2023-04-19T05:55:46.189Z,67
2023-04-19T05:56:53.266Z,67
2023-04-19T05:58:00.422Z,67
2023-04-19T05:59:07.591Z,67
2023-04-19T06:00:14.104Z,67
2023-04-19T06:01:21.147Z,67
2023-04-19T06:02:28.490Z,67
2023-04-19T06:03:35.594Z,67
2023-04-19T06:04:42.763Z,67
2023-04-19T06:05:49.106Z,67
2023-04-19T06:06:56.203Z,67
2023-04-19T06:08:03.680Z,67
2023-04-19T06:10:17.569Z,67
2023-04-19T06:11:29.172Z,67
2023-04-19T06:12:31.140Z,67
2023-04-19T06:13:38.275Z,67
2023-04-19T06:14:45.453Z,67
2023-04-19T06:15:52.591Z,67
2023-04-19T06:16:59.098Z,67
2023-04-19T06:18:06.271Z,67
2023-04-19T06:19:13.359Z,67
2023-04-19T06:20:20.431Z,67
2023-04-19T06:21:27.477Z,67
2023-04-19T06:22:34.119Z,67
2023-04-19T06:23:41.200Z,67
2023-04-19T06:24:48.393Z,67
2023-04-19T06:25:56.334Z,67
2023-04-19T06:27:02.204Z,67
2023-04-19T06:28:09.122Z,67
2023-04-19T06:29:16.266Z,67
2023-04-19T06:30:23.306Z,67
2023-04-19T06:31:30.497Z,68
2023-04-19T06:32:37.067Z,68
2023-04-19T06:33:44.116Z,68
2023-04-19T06:34:51.212Z,68
2023-04-19T06:35:58.457Z,68
2023-04-19T06:37:05.427Z,68
2023-04-19T06:38:12.015Z,68
2023-04-19T06:39:19.177Z,68
2023-04-19T06:40:26.785Z,68
2023-04-19T06:41:33.356Z,68
2023-04-19T06:42:40.378Z,68
2023-04-19T06:43:47.057Z,68
2023-04-19T06:44:54.194Z,68
2023-04-19T06:46:01.328Z,68
2023-04-19T06:47:08.409Z,68
2023-04-19T06:48:15.505Z,68
2023-04-19T06:49:21.969Z,68
2023-04-19T06:50:29.131Z,68
2023-04-19T06:51:36.260Z,68
2023-04-19T06:52:43.308Z,68
2023-04-19T06:53:50.395Z,68
2023-04-19T06:54:57.066Z,67
2023-04-19T06:56:04.136Z,67
2023-04-19T06:57:11.264Z,67
2023-04-19T06:58:18.375Z,67
2023-04-19T06:59:25.437Z,67
2023-04-19T07:00:32.060Z,67
2023-04-19T07:01:39.347Z,67
2023-04-19T07:02:46.454Z,67
2023-04-19T07:03:55.045Z,67
2023-04-19T07:05:00.623Z,67
2023-04-19T07:06:07.086Z,67
2023-04-19T07:07:14.231Z,66
2023-04-19T07:08:21.278Z,66
2023-04-19T07:09:28.414Z,66
2023-04-19T07:10:35.454Z,65
2023-04-19T07:11:42.222Z,65
2023-04-19T07:12:49.141Z,65
2023-04-19T07:13:56.247Z,65
2023-04-19T07:15:03.373Z,65
2023-04-19T07:16:10.539Z,65
2023-04-19T07:17:17.137Z,65
2023-04-19T07:18:24.109Z,64
2023-04-19T07:19:31.324Z,64
2023-04-19T07:20:38.426Z,64
2023-04-19T07:21:45.536Z,64
2023-04-19T07:22:52.079Z,64
2023-04-19T07:23:59.248Z,64
2023-04-19T07:25:06.371Z,64
2023-04-19T07:26:13.452Z,63
2023-04-19T07:27:20.035Z,63
2023-04-19T07:28:27.135Z,63
2023-04-19T07:29:34.182Z,63
2023-04-19T07:30:41.234Z,63
2023-04-19T07:31:48.437Z,63
2023-04-19T07:32:55.545Z,62
2023-04-19T07:34:02.129Z,62
2023-04-19T07:35:09.305Z,62
2023-04-19T07:36:16.327Z,62
2023-04-19T07:38:30.447Z,61
2023-04-19T07:39:37.126Z,61
2023-04-19T07:40:44.153Z,61
2023-04-19T07:41:51.241Z,61
2023-04-19T07:42:58.445Z,60
2023-04-19T07:44:05.550Z,61
2023-04-19T07:45:12.063Z,60
2023-04-19T07:46:19.213Z,60
2023-04-19T07:47:26.392Z,60
2023-04-19T07:48:33.527Z,60
2023-04-19T07:49:40.078Z,59
2023-04-19T07:50:47.112Z,58
2023-04-19T07:51:54.195Z,58
2023-04-19T07:53:01.333Z,58
2023-04-19T07:54:08.500Z,58
2023-04-19T07:55:15.045Z,58
2023-04-19T07:56:22.170Z,57
2023-04-19T07:57:29.285Z,57
2023-04-19T07:58:36.315Z,57
2023-04-19T07:59:43.488Z,56
2023-04-19T08:00:50.077Z,56
2023-04-19T08:01:57.266Z,56
2023-04-19T08:03:04.722Z,56
2023-04-19T08:04:11.524Z,56
2023-04-19T08:05:18.594Z,56
2023-04-19T08:06:25.108Z,55
2023-04-19T08:07:32.074Z,55
2023-04-19T08:08:39.260Z,55
2023-04-19T08:09:46.441Z,55
2023-04-19T08:10:53.437Z,54
2023-04-19T08:12:03.486Z,54
2023-04-19T08:13:07.107Z,54
2023-04-19T08:14:30.490Z,54
2023-04-19T08:17:06.493Z,54
2023-04-19T08:17:41.881Z,54
2023-04-19T08:18:42.128Z,54
2023-04-19T08:19:49.293Z,54
2023-04-19T08:20:56.374Z,53
2023-04-19T08:22:03.408Z,53
2023-04-19T08:23:20.639Z,52
2023-04-19T08:24:17.548Z,52
2023-04-19T08:25:24.300Z,52
2023-04-19T08:26:31.364Z,52
2023-04-19T08:27:38.523Z,51
2023-04-19T08:28:45.071Z,51
2023-04-19T08:29:52.220Z,51
2023-04-19T08:30:59.321Z,51
2023-04-19T08:32:06.451Z,51
2023-04-19T08:33:13.569Z,51
2023-04-19T08:34:20.161Z,51
2023-04-19T08:35:27.221Z,51
2023-04-19T08:36:41.102Z,51
2023-04-19T08:37:41.396Z,51
2023-04-19T08:38:58.051Z,51
2023-04-19T08:39:55.163Z,51
2023-04-19T08:41:02.178Z,50
2023-04-19T08:42:18.433Z,50
2023-04-19T08:43:16.425Z,51
2023-04-19T08:44:34.983Z,50
2023-04-19T08:45:30.160Z,50
2023-04-19T08:46:37.276Z,50
2023-04-19T08:47:58.623Z,50
2023-04-19T08:48:51.494Z,50
2023-04-19T08:50:11.239Z,50
2023-04-19T08:51:05.998Z,50
2023-04-19T08:52:12.192Z,49
2023-04-19T08:53:25.438Z,49
2023-04-19T08:54:26.431Z,49
2023-04-19T08:55:32.996Z,49
2023-04-19T08:56:40.191Z,49
2023-04-19T08:57:47.242Z,49
2023-04-19T08:59:07.372Z,49
2023-04-19T09:00:01.490Z,49
2023-04-19T09:01:08.366Z,49
2023-04-19T09:02:15.368Z,48
2023-04-19T09:03:22.532Z,48
2023-04-19T09:06:43.173Z,47
2023-04-19T09:07:50.224Z,47
2023-04-19T09:08:57.227Z,46
2023-04-19T09:10:05.025Z,46
2023-04-19T09:11:11.434Z,47
2023-04-19T09:12:18.484Z,47
2023-04-19T09:13:25.233Z,46
2023-04-19T09:14:32.238Z,46
2023-04-19T09:15:39.478Z,46
2023-04-19T09:16:46.477Z,46
2023-04-19T09:17:53.012Z,46
2023-04-19T09:19:11.771Z,45
2023-04-19T09:20:07.368Z,45
2023-04-19T09:21:14.348Z,45
2023-04-19T09:22:21.457Z,45
2023-04-19T09:23:28.089Z,45
2023-04-19T09:24:53.988Z,45
2023-04-19T09:26:49.427Z,45
2023-04-19T09:27:56.480Z,45
2023-04-19T09:29:03.056Z,45
2023-04-19T09:30:17.525Z,45
2023-04-19T09:32:24.408Z,45
2023-04-19T09:33:31.471Z,44
2023-04-19T09:34:38.067Z,44
2023-04-19T09:35:45.199Z,44
2023-04-19T09:37:00.670Z,44
2023-04-19T09:38:05.383Z,44
2023-04-19T09:39:06.433Z,44
2023-04-19T09:40:13.038Z,44
2023-04-19T09:41:20.137Z,43
2023-04-19T09:43:57.972Z,44
2023-04-19T09:45:13.122Z,43
2023-04-19T09:45:48.054Z,44
2023-04-19T09:46:55.192Z,43
2023-04-19T09:48:02.330Z,43
2023-04-19T09:49:20.041Z,42
2023-04-19T09:50:24.012Z,42
2023-04-19T09:51:23.547Z,42
2023-04-19T09:52:30.216Z,42
2023-04-19T09:53:37.291Z,42
2023-04-19T09:54:44.469Z,42
2023-04-19T09:56:00.512Z,42
2023-04-19T09:57:00.186Z,41
2023-04-19T09:58:05.238Z,41
2023-04-19T09:59:20.222Z,42
2023-04-19T10:00:19.452Z,42
2023-04-19T10:01:26.114Z,41
2023-04-19T10:02:33.205Z,41
2023-04-19T10:03:40.357Z,41
2023-04-19T10:05:10.580Z,40
2023-04-19T10:05:54.531Z,41
2023-04-19T10:08:08.288Z,41
2023-04-19T10:09:15.606Z,40
2023-04-19T10:10:27.619Z,40
2023-04-19T10:11:29.448Z,39
2023-04-19T10:12:52.416Z,39
2023-04-19T10:13:43.077Z,39
2023-04-19T10:14:50.212Z,39
2023-04-19T10:16:04.863Z,39
2023-04-19T10:17:04.453Z,39
2023-04-19T10:18:10.959Z,38
2023-04-19T10:19:18.129Z,38
2023-04-19T10:20:25.284Z,38
2023-04-19T10:21:32.262Z,39
2023-04-19T10:22:39.454Z,39
2023-04-19T10:23:46.071Z,39
2023-04-19T10:24:53.131Z,38
2023-04-19T10:26:00.225Z,37
2023-04-19T10:27:07.359Z,38
2023-04-19T10:28:14.422Z,38
2023-04-19T10:29:20.982Z,38
2023-04-19T10:30:28.145Z,38
2023-04-19T10:31:35.277Z,38
2023-04-19T10:32:42.374Z,38
2023-04-19T10:34:56.118Z,37
2023-04-19T10:37:10.280Z,37
2023-04-19T10:38:17.388Z,37
2023-04-19T10:39:23.944Z,37
2023-04-19T10:40:31.052Z,37
2023-04-19T10:41:38.110Z,37
2023-04-19T10:42:45.262Z,37
2023-04-19T10:43:52.302Z,37
2023-04-19T10:44:58.894Z,36
2023-04-19T10:46:06.030Z,37
2023-04-19T10:47:14.657Z,37
2023-04-19T10:48:20.287Z,37
2023-04-19T10:49:27.456Z,37
2023-04-19T10:50:33.913Z,37
2023-04-19T10:51:40.996Z,37
2023-04-19T10:52:48.222Z,37
2023-04-19T10:53:55.375Z,36
2023-04-19T10:55:02.379Z,36
2023-04-19T10:56:08.903Z,36
2023-04-19T10:57:16.090Z,36
2023-04-19T10:58:23.169Z,36
2023-04-19T10:59:30.311Z,36
2023-04-19T11:00:37.378Z,36
2023-04-19T11:01:44.073Z,36
2023-04-19T11:02:51.220Z,36
2023-04-19T11:03:58.336Z,36
2023-04-19T11:05:05.357Z,36
2023-04-19T11:06:12.326Z,36
2023-04-19T11:07:19.047Z,37
2023-04-19T11:08:26.140Z,37
2023-04-19T11:09:33.189Z,36
2023-04-19T11:10:40.333Z,37
2023-04-19T11:11:47.400Z,37
2023-04-19T11:12:54.021Z,37
2023-04-19T11:14:01.054Z,37
2023-04-19T11:15:08.169Z,37
2023-04-19T11:16:16.274Z,37
2023-04-19T11:17:22.474Z,36
2023-04-19T11:18:29.107Z,37
2023-04-19T11:19:36.159Z,37
2023-04-19T11:20:43.144Z,37
2023-04-19T11:21:50.324Z,37
2023-04-19T11:22:57.442Z,37
2023-04-19T11:24:03.926Z,37
2023-04-19T11:25:11.129Z,37
2023-04-19T11:26:18.218Z,37
2023-04-19T11:27:25.342Z,37
2023-04-19T11:28:32.406Z,37
2023-04-19T11:29:39.046Z,37
2023-04-19T11:30:46.145Z,37
2023-04-19T11:31:53.139Z,38
2023-04-19T11:33:00.451Z,38
2023-04-19T11:34:07.435Z,37
2023-04-19T11:35:13.940Z,37
2023-04-19T11:36:21.095Z,37
2023-04-19T11:37:28.189Z,37
2023-04-19T11:38:35.306Z,37
2023-04-19T11:39:41.965Z,37
2023-04-19T11:40:48.982Z,37
2023-04-19T11:41:56.101Z,38
2023-04-19T11:43:03.269Z,38
2023-04-19T11:44:10.321Z,38
2023-04-19T11:45:28.821Z,37
2023-04-19T11:46:24.052Z,37
2023-04-19T11:47:31.265Z,37
2023-04-19T11:48:38.256Z,37
2023-04-19T11:49:45.314Z,37
2023-04-19T11:50:51.942Z,37
2023-04-19T11:51:59.074Z,37
2023-04-19T11:53:06.259Z,37
2023-04-19T11:54:13.292Z,38
2023-04-19T11:55:20.408Z,37
2023-04-19T11:56:26.907Z,38
2023-04-19T11:57:34.010Z,38
2023-04-19T11:58:41.706Z,38
2023-04-19T11:59:48.295Z,38
2023-04-19T12:00:55.402Z,38
2023-04-19T12:03:09.281Z,37
2023-04-19T12:04:16.472Z,37
2023-04-19T12:05:23.492Z,37
2023-04-19T12:06:30.384Z,37
2023-04-19T12:07:36.962Z,37
2023-04-19T12:08:44.049Z,37
2023-04-19T12:09:51.174Z,38
2023-04-19T12:10:58.266Z,38
2023-04-19T12:12:05.355Z,37
2023-04-19T12:13:12.004Z,37
2023-04-19T12:14:19.337Z,37
2023-04-19T12:15:28.727Z,38
2023-04-19T12:16:33.243Z,38
2023-04-19T12:17:51.138Z,38
2023-04-19T12:18:46.997Z,38
2023-04-19T12:19:54.074Z,38
2023-04-19T12:21:01.564Z,38
2023-04-19T12:22:08.320Z,38
2023-04-19T12:23:15.403Z,38
2023-04-19T12:24:21.944Z,38
2023-04-19T12:25:29.076Z,38
2023-04-19T12:26:36.240Z,38
2023-04-19T12:27:43.343Z,38
2023-04-19T12:28:50.410Z,38
2023-04-19T12:29:56.959Z,39
2023-04-19T12:31:04.101Z,38
2023-04-19T12:32:11.314Z,38
2023-04-19T12:33:18.302Z,38
2023-04-19T12:34:24.917Z,38
2023-04-19T12:35:31.970Z,38
2023-04-19T12:36:39.133Z,38
2023-04-19T12:37:46.254Z,38
2023-04-19T12:38:53.304Z,38
2023-04-19T12:39:59.989Z,38
2023-04-19T12:41:07.001Z,38
2023-04-19T12:42:14.166Z,38
2023-04-19T12:44:28.283Z,38
2023-04-19T12:45:35.423Z,38
2023-04-19T12:46:41.964Z,38
2023-04-19T12:47:49.185Z,38
2023-04-19T12:48:56.306Z,38
2023-04-19T12:50:03.260Z,38
2023-04-19T12:51:09.918Z,38
2023-04-19T12:52:17.011Z,38
2023-04-19T12:53:24.150Z,39
2023-04-19T12:54:31.229Z,39
2023-04-19T12:55:38.394Z,39
2023-04-19T12:56:44.863Z,39
2023-04-19T12:57:52.010Z,38
2023-04-19T12:58:59.160Z,38
2023-04-19T13:00:06.317Z,38
2023-04-19T13:01:13.463Z,38
2023-04-19T13:02:20.470Z,38
2023-04-19T13:03:27.253Z,38
2023-04-19T13:04:34.286Z,38
2023-04-19T13:05:41.180Z,38
2023-04-19T13:06:48.348Z,38
2023-04-19T13:07:54.921Z,39
2023-04-19T13:09:11.505Z,38
2023-04-19T13:10:09.085Z,38
2023-04-19T13:11:16.309Z,38
2023-04-19T13:12:23.357Z,38
2023-04-19T13:13:29.933Z,38
2023-04-19T13:14:37.007Z,38
2023-04-19T13:15:44.165Z,38
2023-04-19T13:16:51.246Z,37
2023-04-19T13:17:58.429Z,38
2023-04-19T13:19:04.943Z,38
2023-04-19T13:20:12.068Z,38
2023-04-19T13:21:19.138Z,38
2023-04-19T13:22:26.240Z,38
2023-04-19T13:23:33.305Z,38
2023-04-19T13:24:39.970Z,38
2023-04-19T13:25:47.036Z,38
2023-04-19T13:26:54.245Z,38
2023-04-19T13:28:01.274Z,38
2023-04-19T13:29:07.913Z,37
2023-04-19T13:31:22.038Z,37
2023-04-19T13:32:29.310Z,37
2023-04-19T13:33:36.286Z,37
2023-04-19T13:34:42.837Z,37
2023-04-19T13:35:49.987Z,37
2023-04-19T13:36:57.097Z,37
2023-04-19T13:38:04.193Z,37
2023-04-19T13:39:11.216Z,37
2023-04-19T13:40:19.751Z,37
2023-04-19T13:41:24.993Z,37
2023-04-19T13:42:32.068Z,37
2023-04-19T13:43:39.200Z,37
2023-04-19T13:44:46.311Z,37
2023-04-19T13:45:52.956Z,37
2023-04-19T13:47:00.037Z,37
2023-04-19T13:48:07.100Z,37
2023-04-19T13:49:14.131Z,37
2023-04-19T13:50:21.332Z,37
2023-04-19T13:51:33.197Z,37
2023-04-19T13:52:34.961Z,37
2023-04-19T13:53:42.087Z,37
2023-04-19T13:54:49.173Z,37
2023-04-19T13:55:56.285Z,37
2023-04-19T13:57:02.832Z,37
2023-04-19T13:58:10.033Z,37
2023-04-19T13:59:17.072Z,37
2023-04-19T14:00:24.189Z,38
2023-04-19T14:01:31.316Z,37
2023-04-19T14:02:38.146Z,37
2023-04-19T14:03:45.146Z,37
2023-04-19T14:04:52.053Z,37
2023-04-19T14:05:59.277Z,37
2023-04-19T14:07:06.256Z,37
2023-04-19T14:08:12.948Z,37
2023-04-19T14:09:19.988Z,37
2023-04-19T14:10:27.148Z,38
2023-04-19T14:11:34.267Z,38
2023-04-19T14:12:41.264Z,38
2023-04-19T14:13:47.977Z,38
2023-04-19T14:14:55.303Z,38
2023-04-19T14:16:02.232Z,38
2023-04-19T14:17:09.237Z,38
2023-04-19T14:18:16.362Z,38
2023-04-19T14:19:22.933Z,38
2023-04-19T14:20:30.075Z,38
2023-04-19T14:21:37.135Z,38
2023-04-19T14:22:44.171Z,38
2023-04-19T14:23:51.276Z,38
2023-04-19T14:24:57.939Z,38
2023-04-19T14:26:05.124Z,38
2023-04-19T14:27:12.291Z,38
2023-04-19T14:28:19.267Z,38
2023-04-19T14:29:25.836Z,38
2023-04-19T14:30:33.001Z,38
2023-04-19T14:31:40.077Z,38
2023-04-19T14:32:47.347Z,38
2023-04-19T14:33:54.217Z,38
2023-04-19T14:35:00.882Z,38
2023-04-19T14:36:07.973Z,38
2023-04-19T14:37:15.121Z,38
2023-04-19T14:38:22.164Z,38
2023-04-19T14:39:29.219Z,38
2023-04-19T14:40:35.816Z,38
2023-04-19T14:41:42.891Z,38
2023-04-19T14:42:50.074Z,39
2023-04-19T14:43:57.144Z,39
2023-04-19T14:45:04.326Z,39
2023-04-19T14:47:17.979Z,39
2023-04-19T14:48:25.065Z,39
2023-04-19T14:49:32.157Z,39
2023-04-19T14:51:45.916Z,39
2023-04-19T14:52:52.958Z,40
2023-04-19T14:54:00.116Z,39
2023-04-19T14:55:07.157Z,39
2023-04-19T14:56:14.313Z,39
2023-04-19T14:57:20.800Z,39
2023-04-19T14:59:35.109Z,39
2023-04-19T15:00:42.170Z,39
2023-04-19T15:01:49.395Z,39
2023-04-19T15:02:55.970Z,40
2023-04-19T15:04:03.266Z,40
2023-04-19T15:05:10.388Z,40
2023-04-19T15:06:17.237Z,40
2023-04-19T15:07:24.252Z,40
2023-04-19T15:08:31.177Z,40
2023-04-19T15:09:38.566Z,40
2023-04-19T15:10:45.102Z,39
2023-04-19T15:11:52.127Z,39
2023-04-19T15:12:59.335Z,39
2023-04-19T15:14:05.926Z,39
2023-04-19T15:15:12.992Z,40
2023-04-19T15:16:20.150Z,39
2023-04-19T15:17:27.248Z,40
2023-04-19T15:18:34.319Z,40
2023-04-19T15:19:40.875Z,40
2023-04-19T15:20:47.990Z,40
2023-04-19T15:21:55.134Z,40
2023-04-19T15:23:02.178Z,40
2023-04-19T15:24:09.292Z,40
2023-04-19T15:25:15.966Z,39
2023-04-19T15:26:22.957Z,39
2023-04-19T15:27:30.251Z,40
2023-04-19T15:28:37.234Z,40
2023-04-19T15:29:43.802Z,40
2023-04-19T15:30:50.892Z,40
2023-04-19T15:31:58.077Z,40
2023-04-19T15:33:05.211Z,40
2023-04-19T15:34:12.265Z,40
2023-04-19T15:35:19.912Z,40
2023-04-19T15:36:25.917Z,40
2023-04-19T15:37:32.968Z,40
2023-04-19T15:38:40.981Z,40
2023-04-19T15:39:47.218Z,40
2023-04-19T15:40:53.864Z,40
2023-04-19T15:42:03.516Z,40
2023-04-19T15:43:08.166Z,40
2023-04-19T15:44:15.174Z,40
2023-04-19T15:45:22.182Z,40
2023-04-19T15:46:28.792Z,40
2023-04-19T15:47:35.977Z,40
2023-04-19T15:48:42.997Z,40
2023-04-19T15:49:50.128Z,40
2023-04-19T15:50:57.312Z,40
2023-04-19T15:52:03.796Z,40
2023-04-19T15:53:10.910Z,40
2023-04-19T15:55:25.197Z,40
2023-04-19T15:56:32.197Z,40
2023-04-19T15:57:38.817Z,40
2023-04-19T15:58:45.966Z,40
2023-04-19T15:59:53.082Z,40
2023-04-19T16:01:00.189Z,40
2023-04-19T16:02:07.346Z,40
2023-04-19T16:03:14.028Z,40
2023-04-19T16:04:21.120Z,40
2023-04-19T16:05:28.082Z,40
2023-04-19T16:06:35.191Z,40
2023-04-19T16:07:42.304Z,40
2023-04-19T16:08:48.946Z,40
2023-04-19T16:09:56.007Z,40
2023-04-19T16:11:03.074Z,39
2023-04-19T16:12:10.204Z,39
2023-04-19T16:13:17.258Z,39
2023-04-19T16:14:23.806Z,39
2023-04-19T16:15:30.905Z,39
2023-04-19T16:16:38.203Z,39
2023-04-19T16:17:45.220Z,39
2023-04-19T16:18:52.279Z,39
2023-04-19T16:19:58.840Z,39
2023-04-19T16:21:05.976Z,39
2023-04-19T16:22:13.022Z,40
2023-04-19T16:23:20.243Z,39
2023-04-19T16:24:27.358Z,39